sensor_id;sensor_type;location;lat;lon;timestamp;P1;durP1;ratioP1;P2;durP2;ratioP2
31680;SDS011;18281;51.364;9.566;2024-02-15T00:02:15;6.15;;;5.22;;
31680;SDS011;18281;51.364;9.566;2024-02-15T00:04:43;5.00;;;4.50;;
31680;SDS011;18281;51.364;9.566;2024-02-15T00:07:09;5.80;;;5.20;;
31680;SDS011;18281;51.364;9.566;2024-02-15T00:09:35;5.60;;;5.05;;
31680;SDS011;18281;51.364;9.566;2024-02-15T00:12:01;6.68;;;5.45;;
31680;SDS011;18281;51.364;9.566;2024-02-15T00:14:27;5.82;;;5.22;;
31680;SDS011;18281;51.364;9.566;2024-02-15T00:16:53;6.20;;;5.28;;
31680;SDS011;18281;51.364;9.566;2024-02-15T00:19:20;7.22;;;5.40;;
31680;SDS011;18281;51.364;9.566;2024-02-15T00:21:46;6.55;;;4.80;;
31680;SDS011;18281;51.364;9.566;2024-02-15T00:24:12;6.22;;;5.63;;
31680;SDS011;18281;51.364;9.566;2024-02-15T00:26:39;5.65;;;5.05;;
31680;SDS011;18281;51.364;9.566;2024-02-15T00:29:06;5.97;;;5.38;;
31680;SDS011;18281;51.364;9.566;2024-02-15T00:31:32;6.95;;;5.22;;
31680;SDS011;18281;51.364;9.566;2024-02-15T00:33:58;5.53;;;4.80;;
31680;SDS011;18281;51.364;9.566;2024-02-15T00:36:24;5.15;;;4.65;;
31680;SDS011;18281;51.364;9.566;2024-02-15T00:38:50;6.60;;;4.70;;
31680;SDS011;18281;51.364;9.566;2024-02-15T00:41:16;7.28;;;5.32;;
31680;SDS011;18281;51.364;9.566;2024-02-15T00:43:42;6.55;;;5.53;;
31680;SDS011;18281;51.364;9.566;2024-02-15T00:46:08;5.72;;;5.10;;
31680;SDS011;18281;51.364;9.566;2024-02-15T00:48:34;5.88;;;5.10;;
31680;SDS011;18281;51.364;9.566;2024-02-15T00:50:59;5.72;;;5.05;;
31680;SDS011;18281;51.364;9.566;2024-02-15T00:53:25;6.78;;;4.97;;
31680;SDS011;18281;51.364;9.566;2024-02-15T00:55:51;6.53;;;5.28;;
31680;SDS011;18281;51.364;9.566;2024-02-15T00:58:16;6.05;;;4.65;;
31680;SDS011;18281;51.364;9.566;2024-02-15T01:00:42;7.95;;;5.75;;
31680;SDS011;18281;51.364;9.566;2024-02-15T01:03:14;5.45;;;4.57;;
31680;SDS011;18281;51.364;9.566;2024-02-15T01:05:43;6.97;;;5.22;;
31680;SDS011;18281;51.364;9.566;2024-02-15T01:08:09;4.93;;;4.40;;
31680;SDS011;18281;51.364;9.566;2024-02-15T01:10:37;5.55;;;4.43;;
31680;SDS011;18281;51.364;9.566;2024-02-15T01:13:02;5.65;;;4.95;;
31680;SDS011;18281;51.364;9.566;2024-02-15T01:15:28;5.10;;;4.60;;
31680;SDS011;18281;51.364;9.566;2024-02-15T01:17:54;4.90;;;4.50;;
31680;SDS011;18281;51.364;9.566;2024-02-15T01:20:20;5.18;;;4.60;;
31680;SDS011;18281;51.364;9.566;2024-02-15T01:22:46;5.82;;;4.85;;
31680;SDS011;18281;51.364;9.566;2024-02-15T01:25:11;4.68;;;4.20;;
31680;SDS011;18281;51.364;9.566;2024-02-15T01:27:38;5.00;;;4.55;;
31680;SDS011;18281;51.364;9.566;2024-02-15T01:30:04;4.88;;;4.40;;
31680;SDS011;18281;51.364;9.566;2024-02-15T01:32:30;5.15;;;4.53;;
31680;SDS011;18281;51.364;9.566;2024-02-15T01:34:56;4.63;;;4.20;;
31680;SDS011;18281;51.364;9.566;2024-02-15T01:37:22;4.40;;;3.92;;
31680;SDS011;18281;51.364;9.566;2024-02-15T01:39:55;4.40;;;4.00;;
31680;SDS011;18281;51.364;9.566;2024-02-15T01:42:20;4.18;;;3.78;;
31680;SDS011;18281;51.364;9.566;2024-02-15T01:44:46;4.57;;;4.18;;
31680;SDS011;18281;51.364;9.566;2024-02-15T01:47:14;4.45;;;4.05;;
31680;SDS011;18281;51.364;9.566;2024-02-15T01:49:42;4.45;;;4.05;;
31680;SDS011;18281;51.364;9.566;2024-02-15T01:52:08;5.03;;;3.60;;
31680;SDS011;18281;51.364;9.566;2024-02-15T01:54:34;4.78;;;4.38;;
31680;SDS011;18281;51.364;9.566;2024-02-15T01:57:01;4.68;;;4.22;;
31680;SDS011;18281;51.364;9.566;2024-02-15T01:59:27;4.85;;;4.38;;
31680;SDS011;18281;51.364;9.566;2024-02-15T02:01:53;4.72;;;4.00;;
31680;SDS011;18281;51.364;9.566;2024-02-15T02:04:19;4.20;;;3.80;;
31680;SDS011;18281;51.364;9.566;2024-02-15T02:06:46;4.50;;;4.10;;
31680;SDS011;18281;51.364;9.566;2024-02-15T02:09:12;4.15;;;3.70;;
31680;SDS011;18281;51.364;9.566;2024-02-15T02:11:38;5.97;;;4.03;;
31680;SDS011;18281;51.364;9.566;2024-02-15T02:14:04;4.10;;;3.70;;
31680;SDS011;18281;51.364;9.566;2024-02-15T02:16:30;4.70;;;3.70;;
31680;SDS011;18281;51.364;9.566;2024-02-15T02:18:59;4.10;;;3.70;;
31680;SDS011;18281;51.364;9.566;2024-02-15T02:21:25;5.47;;;3.65;;
31680;SDS011;18281;51.364;9.566;2024-02-15T02:23:58;4.78;;;3.50;;
31680;SDS011;18281;51.364;9.566;2024-02-15T02:26:24;5.03;;;3.95;;
31680;SDS011;18281;51.364;9.566;2024-02-15T02:28:50;4.68;;;3.85;;
31680;SDS011;18281;51.364;9.566;2024-02-15T02:31:19;3.55;;;3.25;;
31680;SDS011;18281;51.364;9.566;2024-02-15T02:33:47;6.93;;;4.30;;
31680;SDS011;18281;51.364;9.566;2024-02-15T02:36:17;3.97;;;3.40;;
31680;SDS011;18281;51.364;9.566;2024-02-15T02:38:49;3.88;;;3.50;;
31680;SDS011;18281;51.364;9.566;2024-02-15T02:41:15;3.92;;;3.53;;
31680;SDS011;18281;51.364;9.566;2024-02-15T02:43:41;5.07;;;3.80;;
31680;SDS011;18281;51.364;9.566;2024-02-15T02:46:08;4.68;;;3.67;;
31680;SDS011;18281;51.364;9.566;2024-02-15T02:48:36;4.45;;;3.83;;
31680;SDS011;18281;51.364;9.566;2024-02-15T02:51:02;5.80;;;3.90;;
31680;SDS011;18281;51.364;9.566;2024-02-15T02:53:27;4.22;;;3.22;;
31680;SDS011;18281;51.364;9.566;2024-02-15T02:55:53;3.78;;;3.13;;
31680;SDS011;18281;51.364;9.566;2024-02-15T02:58:21;4.38;;;3.67;;
31680;SDS011;18281;51.364;9.566;2024-02-15T03:00:48;5.05;;;3.42;;
31680;SDS011;18281;51.364;9.566;2024-02-15T03:03:13;5.13;;;3.70;;
31680;SDS011;18281;51.364;9.566;2024-02-15T03:05:41;4.10;;;3.38;;
31680;SDS011;18281;51.364;9.566;2024-02-15T03:08:13;4.13;;;3.30;;
31680;SDS011;18281;51.364;9.566;2024-02-15T03:10:39;3.50;;;3.20;;
31680;SDS011;18281;51.364;9.566;2024-02-15T03:13:05;6.68;;;3.58;;
31680;SDS011;18281;51.364;9.566;2024-02-15T03:15:37;4.43;;;3.78;;
31680;SDS011;18281;51.364;9.566;2024-02-15T03:18:06;3.92;;;3.20;;
31680;SDS011;18281;51.364;9.566;2024-02-15T03:20:36;3.90;;;3.50;;
31680;SDS011;18281;51.364;9.566;2024-02-15T03:23:02;5.22;;;3.72;;
31680;SDS011;18281;51.364;9.566;2024-02-15T03:25:28;4.68;;;4.18;;
31680;SDS011;18281;51.364;9.566;2024-02-15T03:27:57;7.93;;;4.57;;
31680;SDS011;18281;51.364;9.566;2024-02-15T03:30:28;7.97;;;4.50;;
31680;SDS011;18281;51.364;9.566;2024-02-15T03:32:56;6.18;;;4.60;;
31680;SDS011;18281;51.364;9.566;2024-02-15T03:35:22;8.43;;;4.82;;
31680;SDS011;18281;51.364;9.566;2024-02-15T03:37:49;4.47;;;4.07;;
31680;SDS011;18281;51.364;9.566;2024-02-15T03:40:19;5.10;;;4.60;;
31680;SDS011;18281;51.364;9.566;2024-02-15T03:42:45;5.95;;;4.10;;
31680;SDS011;18281;51.364;9.566;2024-02-15T03:45:17;5.93;;;4.45;;
31680;SDS011;18281;51.364;9.566;2024-02-15T03:47:42;7.07;;;5.10;;
31680;SDS011;18281;51.364;9.566;2024-02-15T03:50:09;5.70;;;5.10;;
31680;SDS011;18281;51.364;9.566;2024-02-15T03:52:39;7.03;;;5.05;;
31680;SDS011;18281;51.364;9.566;2024-02-15T03:55:18;6.30;;;4.97;;
31680;SDS011;18281;51.364;9.566;2024-02-15T03:57:50;7.88;;;5.28;;
31680;SDS011;18281;51.364;9.566;2024-02-15T04:00:20;6.10;;;5.05;;
31680;SDS011;18281;51.364;9.566;2024-02-15T04:03:00;6.15;;;5.15;;
31680;SDS011;18281;51.364;9.566;2024-02-15T04:05:52;9.55;;;5.53;;
31680;SDS011;18281;51.364;9.566;2024-02-15T04:08:22;6.55;;;4.93;;
31680;SDS011;18281;51.364;9.566;2024-02-15T04:10:51;8.45;;;5.10;;
31680;SDS011;18281;51.364;9.566;2024-02-15T04:13:20;6.72;;;4.65;;
31680;SDS011;18281;51.364;9.566;2024-02-15T04:16:03;9.00;;;5.35;;
31680;SDS011;18281;51.364;9.566;2024-02-15T04:18:36;7.40;;;4.93;;
31680;SDS011;18281;51.364;9.566;2024-02-15T04:21:03;7.53;;;4.97;;
31680;SDS011;18281;51.364;9.566;2024-02-15T04:23:33;9.95;;;5.22;;
31680;SDS011;18281;51.364;9.566;2024-02-15T04:26:09;7.55;;;4.90;;
31680;SDS011;18281;51.364;9.566;2024-02-15T04:28:43;7.15;;;4.85;;
31680;SDS011;18281;51.364;9.566;2024-02-15T04:31:18;7.50;;;5.13;;
31680;SDS011;18281;51.364;9.566;2024-02-15T04:33:57;5.45;;;4.70;;
31680;SDS011;18281;51.364;9.566;2024-02-15T04:36:23;6.47;;;5.15;;
31680;SDS011;18281;51.364;9.566;2024-02-15T04:38:58;5.90;;;5.13;;
31680;SDS011;18281;51.364;9.566;2024-02-15T04:41:27;9.38;;;6.57;;
31680;SDS011;18281;51.364;9.566;2024-02-15T04:43:56;7.78;;;5.50;;
31680;SDS011;18281;51.364;9.566;2024-02-15T04:46:25;9.13;;;5.60;;
31680;SDS011;18281;51.364;9.566;2024-02-15T04:48:52;7.50;;;5.15;;
31680;SDS011;18281;51.364;9.566;2024-02-15T04:51:18;9.40;;;6.90;;
31680;SDS011;18281;51.364;9.566;2024-02-15T04:54:08;8.10;;;5.80;;
31680;SDS011;18281;51.364;9.566;2024-02-15T04:56:43;6.43;;;5.60;;
31680;SDS011;18281;51.364;9.566;2024-02-15T04:59:09;7.57;;;6.00;;
31680;SDS011;18281;51.364;9.566;2024-02-15T05:01:40;7.10;;;5.53;;
31680;SDS011;18281;51.364;9.566;2024-02-15T05:04:07;8.15;;;6.03;;
31680;SDS011;18281;51.364;9.566;2024-02-15T05:06:42;10.27;;;6.47;;
31680;SDS011;18281;51.364;9.566;2024-02-15T05:09:10;10.10;;;5.72;;
31680;SDS011;18281;51.364;9.566;2024-02-15T05:11:44;14.45;;;6.55;;
31680;SDS011;18281;51.364;9.566;2024-02-15T05:14:25;12.15;;;6.60;;
31680;SDS011;18281;51.364;9.566;2024-02-15T05:16:56;9.00;;;6.68;;
31680;SDS011;18281;51.364;9.566;2024-02-15T05:19:21;9.17;;;6.57;;
31680;SDS011;18281;51.364;9.566;2024-02-15T05:21:51;10.20;;;5.72;;
31680;SDS011;18281;51.364;9.566;2024-02-15T05:24:17;9.90;;;6.57;;
31680;SDS011;18281;51.364;9.566;2024-02-15T05:26:45;8.50;;;6.22;;
31680;SDS011;18281;51.364;9.566;2024-02-15T05:29:19;13.43;;;6.75;;
31680;SDS011;18281;51.364;9.566;2024-02-15T05:32:00;11.95;;;6.85;;
31680;SDS011;18281;51.364;9.566;2024-02-15T05:34:34;10.15;;;7.53;;
31680;SDS011;18281;51.364;9.566;2024-02-15T05:37:07;12.18;;;6.75;;
31680;SDS011;18281;51.364;9.566;2024-02-15T05:39:35;13.18;;;7.15;;
31680;SDS011;18281;51.364;9.566;2024-02-15T05:42:03;11.10;;;7.30;;
31680;SDS011;18281;51.364;9.566;2024-02-15T05:44:30;12.63;;;7.70;;
31680;SDS011;18281;51.364;9.566;2024-02-15T05:47:03;12.98;;;8.85;;
31680;SDS011;18281;51.364;9.566;2024-02-15T05:49:29;13.77;;;7.88;;
31680;SDS011;18281;51.364;9.566;2024-02-15T05:51:54;14.23;;;7.82;;
31680;SDS011;18281;51.364;9.566;2024-02-15T05:54:21;10.05;;;7.63;;
31680;SDS011;18281;51.364;9.566;2024-02-15T05:56:52;9.45;;;6.80;;
31680;SDS011;18281;51.364;9.566;2024-02-15T05:59:20;8.85;;;5.03;;
31680;SDS011;18281;51.364;9.566;2024-02-15T06:01:46;8.57;;;4.40;;
31680;SDS011;18281;51.364;9.566;2024-02-15T06:04:16;13.07;;;4.68;;
31680;SDS011;18281;51.364;9.566;2024-02-15T06:06:44;7.95;;;4.47;;
31680;SDS011;18281;51.364;9.566;2024-02-15T06:09:13;14.43;;;5.07;;
31680;SDS011;18281;51.364;9.566;2024-02-15T06:11:46;12.30;;;7.15;;
31680;SDS011;18281;51.364;9.566;2024-02-15T06:14:18;12.13;;;6.82;;
31680;SDS011;18281;51.364;9.566;2024-02-15T06:16:53;11.63;;;8.05;;
31680;SDS011;18281;51.364;9.566;2024-02-15T06:19:25;12.05;;;7.50;;
31680;SDS011;18281;51.364;9.566;2024-02-15T06:21:51;11.43;;;7.20;;
31680;SDS011;18281;51.364;9.566;2024-02-15T06:24:26;10.35;;;7.50;;
31680;SDS011;18281;51.364;9.566;2024-02-15T06:26:53;9.93;;;6.93;;
31680;SDS011;18281;51.364;9.566;2024-02-15T06:29:24;10.52;;;7.25;;
31680;SDS011;18281;51.364;9.566;2024-02-15T06:32:18;9.55;;;6.82;;
31680;SDS011;18281;51.364;9.566;2024-02-15T06:38:01;12.27;;;7.50;;
31680;SDS011;18281;51.364;9.566;2024-02-15T06:40:52;13.57;;;8.02;;
31680;SDS011;18281;51.364;9.566;2024-02-15T06:43:23;11.57;;;8.95;;
31680;SDS011;18281;51.364;9.566;2024-02-15T06:45:54;15.45;;;8.98;;
31680;SDS011;18281;51.364;9.566;2024-02-15T06:48:23;13.98;;;8.23;;
31680;SDS011;18281;51.364;9.566;2024-02-15T06:50:50;13.93;;;8.32;;
31680;SDS011;18281;51.364;9.566;2024-02-15T06:53:15;14.88;;;8.80;;
31680;SDS011;18281;51.364;9.566;2024-02-15T06:55:41;12.55;;;8.40;;
31680;SDS011;18281;51.364;9.566;2024-02-15T06:58:07;10.07;;;8.32;;
31680;SDS011;18281;51.364;9.566;2024-02-15T07:00:32;14.48;;;8.23;;
31680;SDS011;18281;51.364;9.566;2024-02-15T07:02:58;12.52;;;6.90;;
31680;SDS011;18281;51.364;9.566;2024-02-15T07:05:23;12.70;;;6.30;;
31680;SDS011;18281;51.364;9.566;2024-02-15T07:07:53;10.02;;;7.00;;
31680;SDS011;18281;51.364;9.566;2024-02-15T07:10:20;11.80;;;6.68;;
31680;SDS011;18281;51.364;9.566;2024-02-15T07:12:46;9.85;;;7.22;;
31680;SDS011;18281;51.364;9.566;2024-02-15T07:15:11;18.67;;;7.20;;
31680;SDS011;18281;51.364;9.566;2024-02-15T07:17:37;12.07;;;7.03;;
31680;SDS011;18281;51.364;9.566;2024-02-15T07:20:02;13.02;;;6.93;;
31680;SDS011;18281;51.364;9.566;2024-02-15T07:22:31;12.45;;;7.00;;
31680;SDS011;18281;51.364;9.566;2024-02-15T07:24:57;16.98;;;6.00;;
31680;SDS011;18281;51.364;9.566;2024-02-15T07:27:22;8.10;;;5.95;;
31680;SDS011;18281;51.364;9.566;2024-02-15T07:29:50;13.18;;;6.25;;
31680;SDS011;18281;51.364;9.566;2024-02-15T07:32:16;7.65;;;5.50;;
31680;SDS011;18281;51.364;9.566;2024-02-15T07:34:42;10.48;;;6.72;;
31680;SDS011;18281;51.364;9.566;2024-02-15T07:37:08;9.90;;;7.20;;
31680;SDS011;18281;51.364;9.566;2024-02-15T07:39:34;14.48;;;7.60;;
31680;SDS011;18281;51.364;9.566;2024-02-15T07:42:01;10.40;;;7.10;;
31680;SDS011;18281;51.364;9.566;2024-02-15T07:44:29;13.07;;;7.57;;
31680;SDS011;18281;51.364;9.566;2024-02-15T07:46:57;9.75;;;7.57;;
31680;SDS011;18281;51.364;9.566;2024-02-15T07:49:25;9.80;;;7.53;;
31680;SDS011;18281;51.364;9.566;2024-02-15T07:51:51;12.00;;;7.90;;
31680;SDS011;18281;51.364;9.566;2024-02-15T07:54:18;11.25;;;7.75;;
31680;SDS011;18281;51.364;9.566;2024-02-15T07:56:46;13.63;;;7.22;;
31680;SDS011;18281;51.364;9.566;2024-02-15T07:59:13;12.27;;;8.02;;
31680;SDS011;18281;51.364;9.566;2024-02-15T08:01:40;12.30;;;7.47;;
31680;SDS011;18281;51.364;9.566;2024-02-15T08:04:05;16.55;;;7.68;;
31680;SDS011;18281;51.364;9.566;2024-02-15T08:06:33;9.35;;;6.40;;
31680;SDS011;18281;51.364;9.566;2024-02-15T08:08:58;11.95;;;7.60;;
31680;SDS011;18281;51.364;9.566;2024-02-15T08:11:24;12.35;;;6.72;;
31680;SDS011;18281;51.364;9.566;2024-02-15T08:13:51;12.60;;;7.18;;
31680;SDS011;18281;51.364;9.566;2024-02-15T08:16:19;14.73;;;6.85;;
31680;SDS011;18281;51.364;9.566;2024-02-15T08:18:49;10.68;;;7.20;;
31680;SDS011;18281;51.364;9.566;2024-02-15T08:21:24;12.68;;;7.00;;
31680;SDS011;18281;51.364;9.566;2024-02-15T08:23:50;9.20;;;7.30;;
31680;SDS011;18281;51.364;9.566;2024-02-15T08:26:16;12.13;;;7.65;;
31680;SDS011;18281;51.364;9.566;2024-02-15T08:28:42;11.73;;;7.93;;
31680;SDS011;18281;51.364;9.566;2024-02-15T08:31:07;10.75;;;7.68;;
31680;SDS011;18281;51.364;9.566;2024-02-15T08:33:35;10.40;;;7.95;;
31680;SDS011;18281;51.364;9.566;2024-02-15T08:36:03;12.38;;;8.00;;
31680;SDS011;18281;51.364;9.566;2024-02-15T08:38:29;9.80;;;7.07;;
31680;SDS011;18281;51.364;9.566;2024-02-15T08:40:54;10.95;;;7.70;;
31680;SDS011;18281;51.364;9.566;2024-02-15T08:43:20;8.38;;;7.05;;
31680;SDS011;18281;51.364;9.566;2024-02-15T08:45:45;10.50;;;7.57;;
31680;SDS011;18281;51.364;9.566;2024-02-15T08:48:11;8.85;;;6.85;;
31680;SDS011;18281;51.364;9.566;2024-02-15T08:50:36;11.10;;;6.30;;
31680;SDS011;18281;51.364;9.566;2024-02-15T08:53:02;13.48;;;7.30;;
31680;SDS011;18281;51.364;9.566;2024-02-15T08:55:31;11.52;;;7.43;;
31680;SDS011;18281;51.364;9.566;2024-02-15T08:57:56;10.45;;;6.32;;
31680;SDS011;18281;51.364;9.566;2024-02-15T09:00:22;11.68;;;7.70;;
31680;SDS011;18281;51.364;9.566;2024-02-15T09:02:49;11.77;;;7.28;;
31680;SDS011;18281;51.364;9.566;2024-02-15T09:05:14;11.88;;;7.15;;
31680;SDS011;18281;51.364;9.566;2024-02-15T09:07:40;11.10;;;7.72;;
31680;SDS011;18281;51.364;9.566;2024-02-15T09:10:07;19.20;;;7.40;;
31680;SDS011;18281;51.364;9.566;2024-02-15T09:12:35;11.50;;;7.18;;
31680;SDS011;18281;51.364;9.566;2024-02-15T09:15:02;14.63;;;8.10;;
31680;SDS011;18281;51.364;9.566;2024-02-15T09:17:29;11.25;;;7.53;;
31680;SDS011;18281;51.364;9.566;2024-02-15T09:19:57;14.15;;;7.68;;
31680;SDS011;18281;51.364;9.566;2024-02-15T09:22:22;10.55;;;7.38;;
31680;SDS011;18281;51.364;9.566;2024-02-15T09:24:48;13.35;;;7.47;;
31680;SDS011;18281;51.364;9.566;2024-02-15T09:27:13;10.32;;;7.50;;
31680;SDS011;18281;51.364;9.566;2024-02-15T09:29:38;11.88;;;7.95;;
31680;SDS011;18281;51.364;9.566;2024-02-15T09:32:05;13.68;;;7.95;;
31680;SDS011;18281;51.364;9.566;2024-02-15T09:34:31;14.30;;;7.97;;
31680;SDS011;18281;51.364;9.566;2024-02-15T09:36:58;13.15;;;7.78;;
31680;SDS011;18281;51.364;9.566;2024-02-15T09:39:23;15.45;;;8.48;;
31680;SDS011;18281;51.364;9.566;2024-02-15T09:41:49;13.55;;;8.00;;
31680;SDS011;18281;51.364;9.566;2024-02-15T09:44:23;13.55;;;8.00;;
31680;SDS011;18281;51.364;9.566;2024-02-15T09:46:52;13.73;;;8.68;;
31680;SDS011;18281;51.364;9.566;2024-02-15T09:49:29;15.38;;;9.63;;
31680;SDS011;18281;51.364;9.566;2024-02-15T09:51:55;18.95;;;9.27;;
31680;SDS011;18281;51.364;9.566;2024-02-15T09:54:23;13.82;;;9.48;;
31680;SDS011;18281;51.364;9.566;2024-02-15T09:56:50;14.05;;;9.55;;
31680;SDS011;18281;51.364;9.566;2024-02-15T09:59:17;14.05;;;8.88;;
31680;SDS011;18281;51.364;9.566;2024-02-15T10:01:44;10.20;;;7.75;;
31680;SDS011;18281;51.364;9.566;2024-02-15T10:04:12;16.15;;;9.00;;
31680;SDS011;18281;51.364;9.566;2024-02-15T10:06:41;13.07;;;7.85;;
31680;SDS011;18281;51.364;9.566;2024-02-15T10:09:23;12.52;;;8.50;;
31680;SDS011;18281;51.364;9.566;2024-02-15T10:11:58;11.23;;;7.13;;
31680;SDS011;18281;51.364;9.566;2024-02-15T10:14:26;15.40;;;8.00;;
31680;SDS011;18281;51.364;9.566;2024-02-15T10:16:54;11.10;;;7.60;;
31680;SDS011;18281;51.364;9.566;2024-02-15T10:19:20;11.27;;;7.32;;
31680;SDS011;18281;51.364;9.566;2024-02-15T10:22:04;10.65;;;7.82;;
31680;SDS011;18281;51.364;9.566;2024-02-15T10:24:31;15.27;;;7.85;;
31680;SDS011;18281;51.364;9.566;2024-02-15T10:27:00;14.48;;;7.60;;
31680;SDS011;18281;51.364;9.566;2024-02-15T10:29:29;11.18;;;7.82;;
31680;SDS011;18281;51.364;9.566;2024-02-15T10:32:05;11.25;;;7.60;;
31680;SDS011;18281;51.364;9.566;2024-02-15T10:34:35;12.07;;;7.72;;
31680;SDS011;18281;51.364;9.566;2024-02-15T10:37:10;13.25;;;7.43;;
31680;SDS011;18281;51.364;9.566;2024-02-15T10:39:37;11.27;;;7.40;;
31680;SDS011;18281;51.364;9.566;2024-02-15T10:42:02;10.70;;;7.05;;
31680;SDS011;18281;51.364;9.566;2024-02-15T10:44:28;9.30;;;7.07;;
31680;SDS011;18281;51.364;9.566;2024-02-15T10:46:53;12.10;;;7.80;;
31680;SDS011;18281;51.364;9.566;2024-02-15T10:49:20;9.38;;;7.28;;
31680;SDS011;18281;51.364;9.566;2024-02-15T10:54:46;13.40;;;7.63;;
31680;SDS011;18281;51.364;9.566;2024-02-15T10:57:12;12.75;;;7.07;;
31680;SDS011;18281;51.364;9.566;2024-02-15T10:59:39;10.50;;;8.18;;
31680;SDS011;18281;51.364;9.566;2024-02-15T11:02:26;10.95;;;7.57;;
31680;SDS011;18281;51.364;9.566;2024-02-15T11:04:53;11.00;;;7.57;;
31680;SDS011;18281;51.364;9.566;2024-02-15T11:07:23;14.27;;;7.28;;
31680;SDS011;18281;51.364;9.566;2024-02-15T11:09:50;7.77;;;6.97;;
31680;SDS011;18281;51.364;9.566;2024-02-15T11:12:16;13.80;;;8.32;;
31680;SDS011;18281;51.364;9.566;2024-02-15T11:14:44;14.77;;;8.45;;
31680;SDS011;18281;51.364;9.566;2024-02-15T11:17:09;13.10;;;8.20;;
31680;SDS011;18281;51.364;9.566;2024-02-15T11:22:13;11.30;;;7.85;;
31680;SDS011;18281;51.364;9.566;2024-02-15T11:27:14;11.32;;;7.38;;
31680;SDS011;18281;51.364;9.566;2024-02-15T11:29:53;10.02;;;7.25;;
31680;SDS011;18281;51.364;9.566;2024-02-15T11:32:34;9.85;;;6.72;;
31680;SDS011;18281;51.364;9.566;2024-02-15T11:35:23;10.55;;;7.20;;
31680;SDS011;18281;51.364;9.566;2024-02-15T11:40:15;13.48;;;6.03;;
31680;SDS011;18281;51.364;9.566;2024-02-15T11:42:42;10.95;;;7.75;;
31680;SDS011;18281;51.364;9.566;2024-02-15T11:45:08;10.75;;;6.63;;
31680;SDS011;18281;51.364;9.566;2024-02-15T11:47:36;9.93;;;6.40;;
31680;SDS011;18281;51.364;9.566;2024-02-15T11:50:04;18.35;;;7.40;;
31680;SDS011;18281;51.364;9.566;2024-02-15T11:52:33;8.93;;;5.90;;
31680;SDS011;18281;51.364;9.566;2024-02-15T11:55:05;9.20;;;6.93;;
31680;SDS011;18281;51.364;9.566;2024-02-15T11:57:40;10.32;;;5.95;;
31680;SDS011;18281;51.364;9.566;2024-02-15T12:00:25;9.50;;;6.00;;
31680;SDS011;18281;51.364;9.566;2024-02-15T12:03:09;8.75;;;6.60;;
31680;SDS011;18281;51.364;9.566;2024-02-15T12:05:57;8.77;;;6.68;;
31680;SDS011;18281;51.364;9.566;2024-02-15T12:08:47;8.55;;;5.95;;
31680;SDS011;18281;51.364;9.566;2024-02-15T12:11:35;10.68;;;6.10;;
31680;SDS011;18281;51.364;9.566;2024-02-15T12:14:19;8.70;;;5.90;;
31680;SDS011;18281;51.364;9.566;2024-02-15T12:17:04;8.68;;;5.60;;
31680;SDS011;18281;51.364;9.566;2024-02-15T12:19:49;11.07;;;6.10;;
31680;SDS011;18281;51.364;9.566;2024-02-15T12:22:20;11.43;;;7.20;;
31680;SDS011;18281;51.364;9.566;2024-02-15T12:24:54;11.02;;;5.78;;
31680;SDS011;18281;51.364;9.566;2024-02-15T12:27:23;7.65;;;5.50;;
31680;SDS011;18281;51.364;9.566;2024-02-15T12:29:52;8.40;;;5.35;;
31680;SDS011;18281;51.364;9.566;2024-02-15T12:32:22;9.93;;;5.68;;
31680;SDS011;18281;51.364;9.566;2024-02-15T12:34:49;10.60;;;5.93;;
31680;SDS011;18281;51.364;9.566;2024-02-15T12:37:17;11.57;;;6.50;;
31680;SDS011;18281;51.364;9.566;2024-02-15T12:39:43;8.52;;;6.20;;
31680;SDS011;18281;51.364;9.566;2024-02-15T12:42:08;11.77;;;6.43;;
31680;SDS011;18281;51.364;9.566;2024-02-15T12:44:34;7.05;;;5.50;;
31680;SDS011;18281;51.364;9.566;2024-02-15T12:47:00;9.55;;;6.25;;
31680;SDS011;18281;51.364;9.566;2024-02-15T12:49:28;7.60;;;5.90;;
31680;SDS011;18281;51.364;9.566;2024-02-15T12:52:32;8.82;;;5.95;;
31680;SDS011;18281;51.364;9.566;2024-02-15T12:55:13;11.20;;;5.60;;
31680;SDS011;18281;51.364;9.566;2024-02-15T12:57:40;10.77;;;5.93;;
31680;SDS011;18281;51.364;9.566;2024-02-15T13:00:08;10.23;;;5.65;;
31680;SDS011;18281;51.364;9.566;2024-02-15T13:02:42;5.28;;;3.60;;
31680;SDS011;18281;51.364;9.566;2024-02-15T13:05:08;4.57;;;3.15;;
31680;SDS011;18281;51.364;9.566;2024-02-15T13:07:34;4.07;;;3.58;;
31680;SDS011;18281;51.364;9.566;2024-02-15T13:10:00;7.38;;;4.00;;
31680;SDS011;18281;51.364;9.566;2024-02-15T13:12:26;6.63;;;4.18;;
31680;SDS011;18281;51.364;9.566;2024-02-15T13:14:52;9.10;;;3.88;;
31680;SDS011;18281;51.364;9.566;2024-02-15T13:17:19;6.57;;;3.55;;
31680;SDS011;18281;51.364;9.566;2024-02-15T13:19:45;7.28;;;3.58;;
31680;SDS011;18281;51.364;9.566;2024-02-15T13:22:13;6.65;;;3.90;;
31680;SDS011;18281;51.364;9.566;2024-02-15T13:24:40;10.40;;;3.38;;
31680;SDS011;18281;51.364;9.566;2024-02-15T13:27:07;7.13;;;3.25;;
31680;SDS011;18281;51.364;9.566;2024-02-15T13:29:35;10.95;;;3.28;;
31680;SDS011;18281;51.364;9.566;2024-02-15T13:32:00;4.00;;;2.92;;
31680;SDS011;18281;51.364;9.566;2024-02-15T13:34:26;8.25;;;4.35;;
31680;SDS011;18281;51.364;9.566;2024-02-15T13:36:51;5.20;;;3.50;;
31680;SDS011;18281;51.364;9.566;2024-02-15T13:39:16;10.80;;;3.80;;
31680;SDS011;18281;51.364;9.566;2024-02-15T13:41:46;5.93;;;3.35;;
31680;SDS011;18281;51.364;9.566;2024-02-15T13:44:12;8.38;;;3.70;;
31680;SDS011;18281;51.364;9.566;2024-02-15T13:46:39;7.80;;;3.70;;
31680;SDS011;18281;51.364;9.566;2024-02-15T13:49:05;12.93;;;3.95;;
31680;SDS011;18281;51.364;9.566;2024-02-15T13:51:30;6.45;;;3.60;;
31680;SDS011;18281;51.364;9.566;2024-02-15T13:53:56;6.30;;;4.07;;
31680;SDS011;18281;51.364;9.566;2024-02-15T13:56:21;10.30;;;4.45;;
31680;SDS011;18281;51.364;9.566;2024-02-15T13:58:47;5.32;;;3.65;;
31680;SDS011;18281;51.364;9.566;2024-02-15T14:01:12;10.02;;;4.10;;
31680;SDS011;18281;51.364;9.566;2024-02-15T14:03:39;8.93;;;4.20;;
31680;SDS011;18281;51.364;9.566;2024-02-15T14:06:06;13.63;;;3.92;;
31680;SDS011;18281;51.364;9.566;2024-02-15T14:08:31;11.57;;;3.67;;
31680;SDS011;18281;51.364;9.566;2024-02-15T14:10:57;9.52;;;3.45;;
31680;SDS011;18281;51.364;9.566;2024-02-15T14:13:22;9.77;;;4.05;;
31680;SDS011;18281;51.364;9.566;2024-02-15T14:15:48;11.55;;;3.92;;
31680;SDS011;18281;51.364;9.566;2024-02-15T14:18:13;11.93;;;5.53;;
31680;SDS011;18281;51.364;9.566;2024-02-15T14:20:40;10.73;;;4.45;;
31680;SDS011;18281;51.364;9.566;2024-02-15T14:23:07;12.07;;;5.60;;
31680;SDS011;18281;51.364;9.566;2024-02-15T14:25:38;13.90;;;4.75;;
31680;SDS011;18281;51.364;9.566;2024-02-15T14:28:04;11.13;;;4.65;;
31680;SDS011;18281;51.364;9.566;2024-02-15T14:30:33;10.57;;;3.85;;
31680;SDS011;18281;51.364;9.566;2024-02-15T14:33:17;8.90;;;3.70;;
31680;SDS011;18281;51.364;9.566;2024-02-15T14:35:44;7.30;;;3.38;;
31680;SDS011;18281;51.364;9.566;2024-02-15T14:38:10;10.25;;;3.85;;
31680;SDS011;18281;51.364;9.566;2024-02-15T14:40:41;8.60;;;4.45;;
31680;SDS011;18281;51.364;9.566;2024-02-15T14:43:21;4.65;;;3.10;;
31680;SDS011;18281;51.364;9.566;2024-02-15T14:45:47;8.35;;;4.25;;
31680;SDS011;18281;51.364;9.566;2024-02-15T14:48:13;7.75;;;3.47;;
31680;SDS011;18281;51.364;9.566;2024-02-15T14:50:39;6.88;;;3.13;;
31680;SDS011;18281;51.364;9.566;2024-02-15T14:53:05;6.18;;;2.83;;
31680;SDS011;18281;51.364;9.566;2024-02-15T14:55:32;14.98;;;4.13;;
31680;SDS011;18281;51.364;9.566;2024-02-15T14:57:58;13.13;;;3.47;;
31680;SDS011;18281;51.364;9.566;2024-02-15T15:00:24;6.45;;;3.15;;
31680;SDS011;18281;51.364;9.566;2024-02-15T15:02:51;5.65;;;2.95;;
31680;SDS011;18281;51.364;9.566;2024-02-15T15:05:17;6.45;;;3.35;;